Time;durP1;ratioP1;P1;durP2;ratioP2;P2;SDS_P1;SDS_P2;PMS_P1;PMS_P2;Temp;Humidity;BMP_temperature;BMP_pressure;BME280_temperature;BME280_humidity;BME280_pressure;Samples;Min_cycle;Max_cycle;Signal;HPM_P1;HPM_P2
2022/01/14 00:02:20;;;;;;;59.05;25.10;;;2.50;99.90;;;;;;5130027;27;20034;-67
2022/01/14 00:04:46;;;;;;;57.15;24.60;;;2.50;99.90;;;;;;5129358;27;20042;-68
2022/01/14 00:07:11;;;;;;;65.15;25.27;;;2.50;99.90;;;;;;5128218;27;20472;-66
2022/01/14 00:09:38;;;;;;;58.08;24.85;;;2.50;99.90;;;;;;5127408;27;20055;-68
2022/01/14 00:12:11;;;;;;;50.45;23.25;;;2.30;99.90;;;;;;5129461;27;20039;-69
2022/01/14 00:17:16;;;;;;;51.35;24.15;;;2.30;99.90;;;;;;5130106;27;20049;-67
2022/01/14 00:19:43;;;;;;;52.50;23.63;;;2.20;99.90;;;;;;5127641;27;20038;-66
2022/01/14 00:22:14;;;;;;;48.20;22.95;;;2.40;99.90;;;;;;5128598;27;20082;-67
2022/01/14 00:35:26;;;;;;;50.70;23.77;;;2.70;99.90;;;;;;5117186;28;20028;-68
2022/01/14 00:37:52;;;;;;;49.80;22.90;;;2.50;99.90;;;;;;5114092;28;20442;-69
2022/01/14 00:40:19;;;;;;;60.60;28.75;;;2.60;99.90;;;;;;5112180;28;20059;-65
2022/01/14 00:42:45;;;;;;;60.22;29.48;;;2.70;99.90;;;;;;5110345;28;20023;-64
2022/01/14 00:45:11;;;;;;;58.40;25.95;;;2.60;99.90;;;;;;5111967;28;20461;-66
2022/01/14 00:47:37;;;;;;;50.25;24.80;;;2.50;99.90;;;;;;5112580;28;20070;-66
2022/01/14 00:50:09;;;;;;;57.22;26.40;;;2.50;99.90;;;;;;5111050;28;20036;-66
2022/01/14 00:52:36;;;;;;;;;;;2.60;99.90;;;;;;5112234;28;20028;-65
2022/01/14 00:55:03;;;;;;;55.72;24.77;;;2.60;99.90;;;;;;5112437;28;19903;-65
2022/01/14 00:59:14;;;;;;;49.80;23.77;;;2.50;99.90;;;;;;5113393;28;20015;-65
2022/01/14 01:00:23;;;;;;;51.08;24.15;;;2.60;99.90;;;;;;5114164;28;20465;-66
2022/01/14 01:02:52;;;;;;;51.72;22.75;;;2.50;99.90;;;;;;5113484;28;20024;-66
2022/01/14 01:05:19;;;;;;;54.72;23.38;;;2.60;99.90;;;;;;5112960;28;20023;-64
2022/01/14 01:07:54;;;;;;;47.00;21.40;;;2.70;99.90;;;;;;5112013;28;20036;-65
2022/01/14 01:10:20;;;;;;;49.92;22.88;;;2.80;99.90;;;;;;5114250;28;20452;-66
2022/01/14 01:13:00;;;;;;;45.75;21.35;;;2.80;99.90;;;;;;5116099;28;20046;-66
2022/01/14 01:15:26;;;;;;;56.50;23.90;;;2.80;99.90;;;;;;5115007;28;20107;-66
2022/01/14 01:17:51;;;;;;;50.20;22.90;;;2.70;99.90;;;;;;5115902;28;20054;-65
2022/01/14 01:20:18;;;;;;;57.72;23.65;;;2.60;99.90;;;;;;5115275;28;20453;-65
2022/01/14 01:22:48;;;;;;;60.42;24.50;;;2.50;99.90;;;;;;5115533;28;20051;-65
2022/01/14 01:25:17;;;;;;;56.03;24.08;;;2.30;99.90;;;;;;5115794;28;20039;-64
2022/01/14 01:27:45;;;;;;;59.85;24.50;;;2.20;99.90;;;;;;5115618;27;20469;-64
2022/01/14 01:30:27;;;;;;;53.45;23.02;;;2.20;99.90;;;;;;5116161;28;20390;-66
2022/01/14 01:32:53;;;;;;;54.38;24.08;;;2.20;99.90;;;;;;5115919;27;20045;-64
2022/01/14 01:35:19;;;;;;;58.95;25.60;;;2.20;99.90;;;;;;5116624;28;20028;-65
2022/01/14 01:37:45;;;;;;;54.10;24.35;;;2.40;99.90;;;;;;5115859;28;20395;-64
2022/01/14 01:40:14;;;;;;;53.78;25.15;;;2.30;99.90;;;;;;5116847;28;20019;-66
2022/01/14 01:42:42;;;;;;;55.58;25.40;;;2.30;99.90;;;;;;5118138;28;20027;-66
2022/01/14 01:45:11;;;;;;;63.15;22.90;;;2.30;99.90;;;;;;5116321;28;20088;-67
2022/01/14 01:47:38;;;;;;;58.15;23.38;;;2.20;99.90;;;;;;5117142;28;20464;-67
2022/01/14 01:50:19;;;;;;;98.15;23.90;;;2.00;99.90;;;;;;5117422;28;20072;-64
2022/01/14 01:52:45;;;;;;;58.70;21.73;;;1.90;99.90;;;;;;5114550;28;20024;-67
2022/01/14 01:55:12;;;;;;;109.57;24.05;;;1.90;99.90;;;;;;5115706;28;20083;-64
2022/01/14 01:57:38;;;;;;;100.15;20.60;;;1.90;99.90;;;;;;5116235;28;20031;-64
2022/01/14 02:00:10;;;;;;;55.65;20.17;;;1.70;99.90;;;;;;5115271;28;20380;-65
2022/01/14 02:02:36;;;;;;;61.75;19.88;;;1.90;99.90;;;;;;5114190;28;20058;-66
2022/01/14 02:05:03;;;;;;;61.15;22.67;;;1.80;99.90;;;;;;5115246;28;20028;-64
2022/01/14 02:07:34;;;;;;;50.33;20.95;;;1.90;99.90;;;;;;5115715;28;20031;-65
2022/01/14 02:10:00;;;;;;;64.25;18.15;;;2.00;99.90;;;;;;5115056;28;20099;-64
2022/01/14 02:12:35;;;;;;;50.33;21.33;;;2.00;99.90;;;;;;5115142;28;20051;-64
2022/01/14 02:15:14;;;;;;;41.40;18.00;;;1.90;99.90;;;;;;5114092;28;20380;-65
2022/01/14 02:23:30;;;;;;;64.20;19.65;;;2.10;99.90;;;;;;5072799;28;20147;-65
2022/01/14 02:25:56;;;;;;;49.08;20.55;;;2.00;99.90;;;;;;5055940;28;20025;-66
2022/01/14 02:28:22;;;;;;;51.83;20.33;;;1.90;99.90;;;;;;5093754;28;20089;-65
2022/01/14 02:30:49;;;;;;;46.33;19.63;;;1.90;99.90;;;;;;5115874;28;20027;-64
2022/01/14 02:33:16;;;;;;;49.38;20.65;;;2.10;99.90;;;;;;5114120;28;20023;-65
2022/01/14 02:35:46;;;;;;;40.20;18.70;;;2.10;99.90;;;;;;5114098;28;20027;-65
2022/01/14 02:38:13;;;;;;;46.22;18.63;;;2.20;99.90;;;;;;5116228;28;20028;-65
2022/01/14 02:40:40;;;;;;;58.00;19.98;;;2.20;99.90;;;;;;5114503;28;20114;-64
2022/01/14 02:43:12;;;;;;;39.95;17.88;;;2.20;99.90;;;;;;5114336;28;20027;-65
2022/01/14 02:45:39;;;;;;;64.03;21.88;;;2.10;99.90;;;;;;5114980;28;20107;-64
2022/01/14 02:48:04;;;;;;;52.20;18.52;;;2.00;99.90;;;;;;5113179;28;20500;-67
2022/01/14 02:50:41;;;;;;;44.35;20.27;;;1.90;99.90;;;;;;5113264;28;20036;-66
2022/01/14 02:53:44;;;;;;;56.30;19.13;;;1.80;99.90;;;;;;5114710;28;20046;-64
2022/01/14 02:56:03;;;;;;;45.90;19.52;;;1.70;99.90;;;;;;5112919;28;20036;-66
2022/01/14 02:58:31;;;;;;;48.70;19.92;;;1.80;99.90;;;;;;5115352;28;20023;-66
2022/01/14 03:01:00;;;;;;;45.53;17.67;;;1.90;99.90;;;;;;5114159;27;20042;-64
2022/01/14 03:03:30;;;;;;;68.30;19.60;;;2.10;99.90;;;;;;5113386;28;20020;-66
2022/01/14 03:05:56;;;;;;;45.50;18.58;;;2.00;99.90;;;;;;5114128;27;20061;-66
2022/01/14 03:08:23;;;;;;;52.50;19.80;;;2.00;99.90;;;;;;5113860;28;20023;-66
2022/01/14 03:10:55;;;;;;;70.78;20.17;;;1.70;99.90;;;;;;5114705;28;20038;-66
2022/01/14 03:13:22;;;;;;;50.72;20.10;;;1.60;99.90;;;;;;5114465;28;20362;-70
2022/01/14 03:15:47;;;;;;;52.88;18.13;;;1.60;99.90;;;;;;5115259;28;20023;-70
2022/01/14 03:18:21;;;;;;;51.65;19.70;;;1.60;99.90;;;;;;5115999;28;20039;-65
2022/01/14 03:20:50;;;;;;;44.67;17.77;;;1.60;99.90;;;;;;5113149;28;20475;-66
2022/01/14 03:23:18;;;;;;;48.22;19.27;;;1.70;99.90;;;;;;5112664;28;20047;-67
2022/01/14 03:25:51;;;;;;;44.75;18.35;;;1.70;99.90;;;;;;5114664;27;20057;-65
2022/01/14 03:28:18;;;;;;;42.20;15.93;;;1.90;99.90;;;;;;5114393;28;20027;-65
2022/01/14 03:30:45;;;;;;;54.53;18.33;;;1.90;99.90;;;;;;5114483;28;20035;-65
2022/01/14 03:33:11;;;;;;;46.97;16.48;;;1.80;99.90;;;;;;5116961;27;20027;-65
2022/01/14 03:35:37;;;;;;;36.38;15.93;;;1.90;99.90;;;;;;5132356;27;20062;-63
2022/01/14 03:38:03;;;;;;;39.35;17.30;;;1.90;99.90;;;;;;5113207;28;20079;-64
2022/01/14 03:40:28;;;;;;;89.97;17.77;;;1.80;99.90;;;;;;5113591;28;20020;-65
2022/01/14 03:42:54;;;;;;;36.85;16.38;;;1.70;99.90;;;;;;5112788;28;20540;-65
2022/01/14 03:45:20;;;;;;;39.13;16.05;;;1.90;99.90;;;;;;5115298;28;20480;-64
2022/01/14 03:47:45;;;;;;;45.13;15.35;;;2.00;99.90;;;;;;5112807;28;20461;-65
2022/01/14 03:50:11;;;;;;;35.83;16.00;;;2.00;99.90;;;;;;5113024;28;20031;-65
2022/01/14 03:52:37;;;;;;;34.92;15.43;;;1.80;99.90;;;;;;5113574;28;20024;-66
2022/01/14 03:55:03;;;;;;;40.13;16.42;;;1.90;99.90;;;;;;5111883;28;20038;-64
2022/01/14 03:57:28;;;;;;;42.30;16.70;;;2.00;99.90;;;;;;5113589;28;20035;-64
2022/01/14 03:59:54;;;;;;;40.85;16.95;;;2.00;99.90;;;;;;5111973;28;20115;-64
2022/01/14 04:02:20;;;;;;;50.45;16.95;;;2.10;99.90;;;;;;5112347;28;20070;-64
2022/01/14 04:04:46;;;;;;;47.38;15.50;;;1.90;99.90;;;;;;5113552;28;20024;-64
2022/01/14 04:07:11;;;;;;;35.67;14.90;;;1.80;99.90;;;;;;5112563;28;20024;-64
2022/01/14 04:09:37;;;;;;;42.35;14.77;;;1.90;99.90;;;;;;5113075;28;20092;-64
2022/01/14 04:12:08;;;;;;;47.55;16.25;;;1.90;99.90;;;;;;5111147;28;20370;-64
2022/01/14 04:17:03;;;;;;;50.45;15.48;;;1.80;99.90;;;;;;5112808;28;20031;-65
2022/01/14 04:19:30;;;;;;;44.70;16.00;;;1.80;99.90;;;;;;5113362;28;20031;-64
2022/01/14 04:21:56;;;;;;;64.35;16.40;;;1.70;99.90;;;;;;5112651;28;20121;-64
2022/01/14 04:24:22;;;;;;;30.75;13.50;;;1.50;99.90;;;;;;5113421;28;20088;-65
2022/01/14 04:26:48;;;;;;;37.53;15.35;;;1.60;99.90;;;;;;5112142;28;20110;-64
2022/01/14 04:29:14;;;;;;;52.33;16.58;;;1.70;99.90;;;;;;5112945;28;20358;-65
2022/01/14 04:31:40;;;;;;;52.67;14.30;;;1.60;99.90;;;;;;5113313;28;20114;-68
2022/01/14 04:34:06;;;;;;;33.67;14.35;;;1.80;99.90;;;;;;5112380;28;20090;-65
2022/01/14 04:36:33;;;;;;;63.17;13.65;;;1.80;99.90;;;;;;5113308;28;20023;-64
2022/01/14 04:38:58;;;;;;;102.53;15.65;;;1.70;99.90;;;;;;5111662;28;20035;-69
2022/01/14 04:41:24;;;;;;;31.70;14.07;;;1.50;99.90;;;;;;5111810;28;20024;-65
2022/01/14 04:43:50;;;;;;;31.38;14.43;;;1.50;99.90;;;;;;5113184;28;20051;-64
2022/01/14 04:48:49;;;;;;;29.52;11.20;;;1.50;99.90;;;;;;5117369;28;20028;-64
2022/01/14 04:51:15;;;;;;;41.75;12.15;;;1.30;99.90;;;;;;5116627;28;20036;-65
2022/01/14 04:53:41;;;;;;;66.18;13.20;;;1.20;99.90;;;;;;5115960;28;20081;-67
2022/01/14 04:56:07;;;;;;;25.52;11.80;;;0.90;99.90;;;;;;5118128;28;20016;-65
2022/01/14 04:58:32;;;;;;;41.97;13.95;;;1.00;99.90;;;;;;5121169;28;20445;-67
2022/01/14 05:00:58;;;;;;;46.90;12.93;;;1.10;99.90;;;;;;5116608;28;20028;-64
2022/01/14 05:03:24;;;;;;;41.90;13.55;;;1.00;99.90;;;;;;5118465;28;20457;-65
2022/01/14 05:05:53;;;;;;;46.25;13.40;;;1.00;99.90;;;;;;5116724;28;20376;-65
2022/01/14 05:08:24;;;;;;;23.27;10.77;;;1.10;99.90;;;;;;5120015;28;20110;-67
2022/01/14 05:13:15;;;;;;;27.60;11.13;;;1.10;99.90;;;;;;5118803;28;20465;-65
2022/01/14 05:15:41;;;;;;;31.02;12.65;;;1.20;99.90;;;;;;5098805;28;20019;-66
2022/01/14 05:18:07;;;;;;;26.40;11.00;;;1.10;99.90;;;;;;5115186;28;20023;-66
2022/01/14 05:20:32;;;;;;;40.55;13.20;;;1.20;99.90;;;;;;5115257;28;20027;-66
2022/01/14 05:22:58;;;;;;;46.10;13.38;;;1.20;99.90;;;;;;5115614;28;20096;-65
2022/01/14 05:25:23;;;;;;;23.55;10.30;;;1.00;99.90;;;;;;5115241;28;20464;-66
2022/01/14 05:27:49;;;;;;;28.33;11.48;;;1.10;99.90;;;;;;5116635;28;20030;-66
2022/01/14 05:30:16;;;;;;;29.92;12.82;;;1.20;99.90;;;;;;5115384;28;20472;-65
2022/01/14 05:32:47;;;;;;;33.40;10.25;;;1.20;99.90;;;;;;5115461;28;20020;-65
2022/01/14 05:35:18;;;;;;;46.38;10.35;;;1.10;99.90;;;;;;5114495;28;20024;-66
2022/01/14 05:37:44;;;;;;;27.23;10.80;;;1.10;99.90;;;;;;5117968;28;20031;-65
2022/01/14 05:40:11;;;;;;;25.65;11.10;;;1.10;99.90;;;;;;5116347;28;20024;-67
2022/01/14 05:42:40;;;;;;;21.92;11.00;;;1.20;99.90;;;;;;5117404;28;20031;-66
2022/01/14 05:45:07;;;;;;;43.85;10.75;;;1.30;99.90;;;;;;5114405;28;20031;-66
2022/01/14 05:47:34;;;;;;;20.10;9.93;;;1.30;99.90;;;;;;5114790;28;20496;-66
2022/01/14 05:50:00;;;;;;;28.17;11.15;;;1.30;99.90;;;;;;5115283;28;20024;-67
2022/01/14 05:52:26;;;;;;;27.02;11.10;;;1.30;99.90;;;;;;5116128;28;20032;-65
2022/01/14 05:54:53;;;;;;;37.17;11.02;;;1.10;99.90;;;;;;5115801;28;20032;-65
2022/01/14 05:57:20;;;;;;;23.35;10.68;;;1.20;99.90;;;;;;5115112;28;20072;-65
2022/01/14 05:59:46;;;;;;;27.00;10.98;;;1.10;99.90;;;;;;5115000;28;20024;-65
2022/01/14 06:02:11;;;;;;;24.65;11.05;;;1.20;99.90;;;;;;5114459;28;20465;-65
2022/01/14 06:04:37;;;;;;;30.08;10.95;;;1.40;99.90;;;;;;5114642;28;20030;-65
2022/01/14 06:07:04;;;;;;;28.10;10.90;;;1.20;99.90;;;;;;5113930;28;20081;-69
2022/01/14 06:09:29;;;;;;;24.58;10.63;;;1.10;99.90;;;;;;5116069;28;20088;-68
2022/01/14 06:11:56;;;;;;;24.23;10.85;;;1.10;99.90;;;;;;5116028;28;20111;-66
2022/01/14 06:14:21;;;;;;;32.70;11.32;;;1.10;99.90;;;;;;5114141;28;20027;-65
2022/01/14 06:16:47;;;;;;;27.00;13.00;;;1.10;99.90;;;;;;5114382;28;20136;-67
2022/01/14 06:19:12;;;;;;;45.30;11.25;;;1.30;99.90;;;;;;5116056;28;20023;-66
2022/01/14 06:21:38;;;;;;;34.70;12.60;;;1.20;99.90;;;;;;5114807;28;20449;-66
2022/01/14 06:24:04;;;;;;;34.97;12.15;;;1.40;99.90;;;;;;5114051;28;20561;-69
2022/01/14 06:26:30;;;;;;;26.00;11.50;;;1.00;99.90;;;;;;5114547;28;20024;-68
2022/01/14 06:28:56;;;;;;;25.83;12.57;;;1.00;99.90;;;;;;5115841;28;20354;-66
2022/01/14 06:31:21;;;;;;;26.20;12.32;;;1.00;99.90;;;;;;5114637;28;20469;-66
2022/01/14 06:33:47;;;;;;;24.92;10.85;;;1.00;99.90;;;;;;5114317;28;20027;-67
2022/01/14 06:36:13;;;;;;;25.38;11.10;;;1.00;99.90;;;;;;5114833;28;20030;-69
2022/01/14 06:38:39;;;;;;;25.63;13.27;;;1.30;99.90;;;;;;5114121;28;20084;-67
2022/01/14 06:41:05;;;;;;;26.52;11.25;;;1.30;99.90;;;;;;5115146;28;20027;-68
2022/01/14 06:43:31;;;;;;;29.48;12.52;;;1.50;99.90;;;;;;5116158;28;20035;-67
2022/01/14 06:45:57;;;;;;;23.75;11.00;;;1.60;99.90;;;;;;5116024;28;20366;-65
2022/01/14 06:48:23;;;;;;;30.42;11.25;;;1.40;99.90;;;;;;5114338;28;20085;-67
2022/01/14 06:50:49;;;;;;;27.30;12.15;;;1.40;99.90;;;;;;5114458;28;20032;-66
2022/01/14 06:53:14;;;;;;;23.70;10.95;;;1.20;99.90;;;;;;5113929;28;20084;-68
2022/01/14 06:55:40;;;;;;;26.75;12.32;;;1.10;99.90;;;;;;5113843;28;20031;-67
2022/01/14 06:58:05;;;;;;;25.38;11.70;;;1.10;99.90;;;;;;5114517;28;20476;-68
2022/01/14 07:00:33;;;;;;;32.30;14.07;;;1.30;99.90;;;;;;5116209;28;20046;-67
2022/01/14 07:03:00;;;;;;;27.88;13.05;;;1.20;99.90;;;;;;5114712;28;20031;-66
2022/01/14 07:05:26;;;;;;;29.10;12.10;;;1.00;99.90;;;;;;5114800;28;20019;-66
2022/01/14 07:07:51;;;;;;;28.67;11.77;;;0.90;99.90;;;;;;5113843;28;20104;-66
2022/01/14 07:10:17;;;;;;;23.60;11.43;;;0.80;99.90;;;;;;5112780;28;20023;-65
2022/01/14 07:12:44;;;;;;;30.65;11.63;;;1.10;99.90;;;;;;5114624;28;20487;-66
2022/01/14 07:15:13;;;;;;;25.17;10.85;;;0.90;99.90;;;;;;5113978;28;20032;-65
2022/01/14 07:17:39;;;;;;;29.92;12.50;;;1.10;99.90;;;;;;5114572;28;20077;-65
2022/01/14 07:20:10;;;;;;;25.98;11.15;;;1.00;99.90;;;;;;5112740;28;20059;-67
2022/01/14 07:22:36;;;;;;;35.33;12.48;;;1.00;99.90;;;;;;5114002;28;20058;-65
2022/01/14 07:25:03;;;;;;;25.70;10.77;;;1.00;99.90;;;;;;5115216;28;20020;-73
2022/01/14 07:27:29;;;;;;;30.95;10.43;;;1.00;99.90;;;;;;5114764;28;20023;-67
2022/01/14 07:29:57;;;;;;;47.30;12.35;;;0.80;99.90;;;;;;5115540;28;20027;-67
2022/01/14 07:32:23;;;;;;;22.50;9.60;;;0.80;99.90;;;;;;5114109;28;20115;-67
2022/01/14 07:34:49;;;;;;;27.77;11.02;;;0.90;99.90;;;;;;5114873;28;20469;-67
2022/01/14 07:37:16;;;;;;;30.60;11.20;;;1.00;99.90;;;;;;5114526;28;20020;-67
2022/01/14 07:39:41;;;;;;;30.73;13.02;;;1.10;99.90;;;;;;5115582;28;20418;-66
2022/01/14 07:42:08;;;;;;;28.70;13.00;;;1.00;99.90;;;;;;5113704;28;20165;-67
2022/01/14 07:44:34;;;;;;;28.13;11.50;;;1.00;99.90;;;;;;5113661;28;20750;-68
2022/01/14 07:47:00;;;;;;;31.52;11.05;;;1.00;99.90;;;;;;5116529;28;20027;-67
2022/01/14 07:49:25;;;;;;;39.22;13.10;;;1.00;99.90;;;;;;5115260;28;20023;-68
2022/01/14 07:51:51;;;;;;;29.05;11.77;;;0.90;99.90;;;;;;5115937;28;20120;-67
2022/01/14 07:54:17;;;;;;;39.80;12.07;;;1.00;99.90;;;;;;5114520;28;20103;-69
2022/01/14 07:56:47;;;;;;;28.95;10.82;;;1.00;99.90;;;;;;5112702;28;20043;-68
2022/01/14 07:59:16;;;;;;;19.38;10.43;;;1.00;99.90;;;;;;5112406;28;20023;-67
2022/01/14 08:01:43;;;;;;;26.48;11.63;;;1.10;99.90;;;;;;5114732;28;20023;-67
2022/01/14 08:04:09;;;;;;;27.05;12.65;;;1.20;99.90;;;;;;5111763;28;20031;-67
2022/01/14 08:06:39;;;;;;;23.83;10.70;;;1.30;99.90;;;;;;5112379;28;20118;-68
2022/01/14 08:09:05;;;;;;;22.13;10.98;;;1.40;99.90;;;;;;5113281;28;20063;-72
2022/01/14 08:11:30;;;;;;;29.58;12.63;;;1.50;99.90;;;;;;5113366;28;20031;-68
2022/01/14 08:13:56;;;;;;;17.85;9.25;;;1.60;99.90;;;;;;5115039;28;20094;-66
2022/01/14 08:16:22;;;;;;;21.52;10.90;;;1.60;99.90;;;;;;5111929;28;20024;-66
2022/01/14 08:18:47;;;;;;;26.27;10.82;;;1.50;99.90;;;;;;5113707;28;20453;-68
2022/01/14 08:21:15;;;;;;;23.45;10.70;;;1.60;99.90;;;;;;5113485;28;20032;-67
2022/01/14 08:23:41;;;;;;;23.50;10.07;;;1.60;99.90;;;;;;5112360;28;20093;-67
2022/01/14 08:26:07;;;;;;;24.20;11.45;;;1.50;99.90;;;;;;5114499;28;20023;-68
2022/01/14 08:28:32;;;;;;;21.52;11.18;;;1.40;99.90;;;;;;5116618;28;20111;-68
2022/01/14 08:30:58;;;;;;;23.42;11.13;;;1.30;99.90;;;;;;5115239;28;20067;-68
2022/01/14 08:33:24;;;;;;;23.50;9.82;;;1.30;99.90;;;;;;5113985;28;20161;-68
2022/01/14 08:35:50;;;;;;;26.42;12.75;;;1.30;99.90;;;;;;5113590;28;20072;-66
2022/01/14 08:38:15;;;;;;;19.88;11.13;;;1.00;99.90;;;;;;5113501;28;20103;-65
2022/01/14 08:40:41;;;;;;;22.65;10.88;;;1.10;99.90;;;;;;5113452;28;20366;-65
2022/01/14 08:43:07;;;;;;;29.85;11.00;;;1.20;99.90;;;;;;5112808;28;20457;-69
2022/01/14 08:45:33;;;;;;;23.38;10.73;;;1.30;99.90;;;;;;5112096;28;20480;-66
2022/01/14 08:47:59;;;;;;;27.15;11.38;;;1.00;99.90;;;;;;5111651;28;20060;-67
2022/01/14 08:50:28;;;;;;;30.42;10.95;;;1.10;99.90;;;;;;5112495;28;20038;-67
2022/01/14 08:52:54;;;;;;;24.52;10.30;;;1.00;99.90;;;;;;5111721;28;20484;-67
2022/01/14 08:55:21;;;;;;;20.02;9.57;;;1.00;99.90;;;;;;5110933;28;20024;-66
2022/01/14 08:57:47;;;;;;;19.65;9.45;;;0.70;99.90;;;;;;5112100;28;20031;-67
2022/01/14 09:00:16;;;;;;;26.05;10.73;;;0.90;99.90;;;;;;5119169;28;20106;-67
2022/01/14 09:02:42;;;;;;;20.77;9.73;;;0.90;99.90;;;;;;5123598;28;20041;-66
2022/01/14 09:05:09;;;;;;;21.85;10.02;;;0.90;99.90;;;;;;5124976;28;20406;-73
2022/01/14 09:07:35;;;;;;;25.35;10.48;;;0.90;99.90;;;;;;5124906;28;20031;-65
2022/01/14 09:10:01;;;;;;;32.70;12.13;;;0.60;99.90;;;;;;5120020;28;20063;-65
2022/01/14 09:12:27;;;;;;;26.38;10.82;;;0.60;99.90;;;;;;5133049;27;20080;-66
2022/01/14 09:14:52;;;;;;;21.88;10.02;;;0.40;99.90;;;;;;5133631;27;20027;-64
2022/01/14 09:17:18;;;;;;;21.08;10.52;;;0.70;99.90;;;;;;5123840;27;20481;-67
2022/01/14 09:19:44;;;;;;;18.50;10.27;;;0.60;99.90;;;;;;5118338;28;20088;-65
2022/01/14 09:22:15;;;;;;;23.48;11.35;;;1.10;99.90;;;;;;5118591;28;20048;-65
2022/01/14 09:24:49;;;;;;;24.85;11.07;;;1.00;99.90;;;;;;5129251;27;20033;-66
2022/01/14 09:27:15;;;;;;;17.63;10.23;;;1.10;99.90;;;;;;5103920;28;20125;-66
2022/01/14 09:29:42;;;;;;;18.08;9.90;;;1.10;99.90;;;;;;5126473;27;20032;-67
2022/01/14 09:32:10;;;;;;;18.08;10.35;;;1.00;99.90;;;;;;5119673;27;20036;-66
2022/01/14 09:34:37;;;;;;;20.42;10.30;;;1.00;99.90;;;;;;5117285;27;20051;-67
2022/01/14 09:37:03;;;;;;;20.05;10.63;;;1.10;99.90;;;;;;5120985;27;20026;-67
2022/01/14 09:39:31;;;;;;;19.70;10.88;;;1.10;99.90;;;;;;5124481;27;20103;-65
2022/01/14 09:41:58;;;;;;;21.10;11.30;;;1.10;99.90;;;;;;5130650;27;20027;-67
2022/01/14 09:44:24;;;;;;;21.67;10.98;;;1.10;99.90;;;;;;5122176;27;20027;-67
2022/01/14 09:46:50;;;;;;;23.17;11.48;;;1.20;99.90;;;;;;5123547;27;20031;-67
2022/01/14 09:49:16;;;;;;;22.83;11.38;;;1.40;99.90;;;;;;5137064;27;20023;-67
2022/01/14 09:51:42;;;;;;;18.60;9.95;;;1.30;99.90;;;;;;5131184;27;20468;-70
2022/01/14 09:54:10;;;;;;;24.50;11.63;;;1.40;99.90;;;;;;5125851;27;20107;-68
2022/01/14 09:56:37;;;;;;;24.90;11.88;;;1.40;99.90;;;;;;5122789;27;20035;-68
2022/01/14 09:59:05;;;;;;;23.95;14.27;;;1.40;99.90;;;;;;5123019;27;20019;-67
2022/01/14 10:01:41;;;;;;;22.88;12.52;;;1.30;99.90;;;;;;5135266;27;20234;-68
2022/01/14 10:04:08;;;;;;;24.48;13.00;;;1.20;99.90;;;;;;5117879;27;20023;-66
2022/01/14 10:06:46;;;;;;;25.75;12.75;;;1.30;99.90;;;;;;5118532;27;20093;-67
2022/01/14 10:09:19;;;;;;;23.50;13.20;;;1.50;99.90;;;;;;5126631;27;20103;-72
2022/01/14 10:11:59;;;;;;;31.73;15.15;;;1.50;99.90;;;;;;5126271;27;20366;-68
2022/01/14 10:14:25;;;;;;;26.25;12.93;;;1.40;99.90;;;;;;5119476;27;20031;-66
2022/01/14 10:16:55;;;;;;;29.83;13.13;;;1.60;99.90;;;;;;5136332;27;20053;-67
2022/01/14 10:19:34;;;;;;;28.25;12.38;;;1.40;99.90;;;;;;5116769;27;20027;-67
2022/01/14 10:22:00;;;;;;;22.80;12.63;;;1.50;99.90;;;;;;5124119;27;20043;-68
2022/01/14 10:24:31;;;;;;;25.50;14.13;;;1.70;99.90;;;;;;5123717;27;20047;-67
2022/01/14 10:27:00;;;;;;;31.60;15.13;;;1.80;99.90;;;;;;5119948;27;20118;-67
2022/01/14 10:29:37;;;;;;;27.42;14.77;;;1.80;99.90;;;;;;5127949;27;20024;-66
2022/01/14 10:32:04;;;;;;;26.75;13.13;;;1.80;99.90;;;;;;5121117;27;20119;-67
2022/01/14 10:34:30;;;;;;;22.10;12.75;;;1.80;99.90;;;;;;5121720;27;20068;-68
2022/01/14 10:37:16;;;;;;;26.23;13.70;;;1.80;99.90;;;;;;5135102;27;20380;-67
2022/01/14 10:39:53;;;;;;;25.23;13.95;;;1.70;99.90;;;;;;5132434;27;20095;-65
2022/01/14 10:42:29;;;;;;;25.10;13.77;;;1.70;99.90;;;;;;5117475;27;20031;-67
2022/01/14 10:45:09;;;;;;;27.20;14.73;;;1.80;99.90;;;;;;5123952;27;20115;-67
2022/01/14 10:47:35;;;;;;;24.75;13.55;;;1.60;99.90;;;;;;5122402;27;20026;-70
2022/01/14 10:50:01;;;;;;;25.08;13.93;;;1.60;99.90;;;;;;5122629;27;20110;-66
2022/01/14 10:52:27;;;;;;;26.73;14.95;;;1.20;99.90;;;;;;5107851;27;20027;-68
2022/01/14 10:54:58;;;;;;;22.63;13.02;;;1.20;99.90;;;;;;5117023;27;21020;-68
2022/01/14 10:57:29;;;;;;;27.10;13.63;;;1.40;99.90;;;;;;5129564;27;20088;-67
2022/01/14 11:00:15;;;;;;;22.95;13.23;;;1.50;99.90;;;;;;5123843;27;20371;-67
2022/01/14 11:02:45;;;;;;;24.70;13.55;;;1.50;99.90;;;;;;5126321;27;20497;-66
2022/01/14 11:05:16;;;;;;;26.77;14.60;;;1.60;99.90;;;;;;5124713;27;20023;-70
2022/01/14 11:07:43;;;;;;;24.27;13.90;;;1.70;99.90;;;;;;5125088;27;20020;-67
2022/01/14 11:10:25;;;;;;;29.02;15.75;;;1.90;99.90;;;;;;5124702;27;20118;-69
2022/01/14 11:12:53;;;;;;;24.67;15.20;;;1.80;99.90;;;;;;5115380;27;20053;-67
2022/01/14 11:15:20;;;;;;;26.83;12.73;;;1.80;99.90;;;;;;5122668;27;20083;-67
2022/01/14 11:17:50;;;;;;;27.65;13.82;;;1.80;99.90;;;;;;5116520;27;20027;-67
2022/01/14 11:20:23;;;;;;;28.80;14.82;;;1.70;99.90;;;;;;5116537;27;20023;-69
2022/01/14 11:25:38;;;;;;;25.75;14.00;;;1.60;99.90;;;;;;5121440;27;20394;-71
2022/01/14 11:28:05;;;;;;;25.27;14.33;;;1.50;99.90;;;;;;5115981;27;20471;-71
2022/01/14 11:30:39;;;;;;;27.45;13.77;;;1.60;99.90;;;;;;5113073;27;20289;-68
2022/01/14 11:33:06;;;;;;;25.73;14.93;;;1.60;99.90;;;;;;5122900;27;20032;-72
2022/01/14 11:35:34;;;;;;;31.48;14.50;;;1.50;99.90;;;;;;5118267;27;20066;-67
2022/01/14 11:38:01;;;;;;;27.20;14.73;;;1.60;99.90;;;;;;5117093;27;20071;-66
2022/01/14 11:40:47;;;;;;;26.95;13.75;;;1.60;99.90;;;;;;5122609;27;20058;-67
2022/01/14 11:43:39;;;;;;;29.00;14.82;;;1.70;99.90;;;;;;5130046;27;20020;-67
2022/01/14 11:46:05;;;;;;;27.02;13.45;;;1.70;99.90;;;;;;5123282;27;20072;-68
2022/01/14 11:48:36;;;;;;;27.13;13.95;;;1.80;99.90;;;;;;5122705;27;20045;-74
2022/01/14 11:51:07;;;;;;;28.27;16.35;;;2.10;99.90;;;;;;5126501;27;20411;-75
2022/01/14 11:53:36;;;;;;;27.20;15.95;;;2.20;99.90;;;;;;5124584;27;20488;-67
2022/01/14 11:56:04;;;;;;;32.53;15.57;;;2.50;99.90;;;;;;5126040;27;20443;-67
2022/01/14 11:58:30;;;;;;;28.60;15.63;;;2.60;99.90;;;;;;5123207;27;20377;-68
2022/01/14 12:00:56;;;;;;;25.75;15.00;;;2.60;99.90;;;;;;5123255;27;20033;-67
2022/01/14 12:03:29;;;;;;;28.75;15.25;;;2.40;99.90;;;;;;5113581;28;20077;-68
2022/01/14 12:06:05;;;;;;;28.83;16.33;;;2.10;99.90;;;;;;5124906;27;20035;-68
2022/01/14 12:08:32;;;;;;;29.67;15.43;;;2.00;99.90;;;;;;5124948;27;20084;-71
2022/01/14 12:11:19;;;;;;;39.40;17.83;;;2.10;99.90;;;;;;5115193;27;20228;-66
2022/01/14 12:14:02;;;;;;;30.98;17.42;;;2.10;99.90;;;;;;5126000;27;20026;-67
2022/01/14 12:17:00;;;;;;;31.90;17.42;;;2.20;99.90;;;;;;5120005;27;20023;-67
2022/01/14 12:19:28;;;;;;;36.67;17.60;;;2.30;99.90;;;;;;5131564;27;20348;-66
2022/01/14 12:21:55;;;;;;;31.60;16.48;;;2.40;99.90;;;;;;5119267;27;20038;-65
2022/01/14 12:24:30;;;;;;;35.53;17.48;;;2.40;99.90;;;;;;5123886;27;20027;-66
2022/01/14 12:27:03;;;;;;;32.30;18.10;;;2.30;99.90;;;;;;5118602;28;20032;-65
2022/01/14 12:29:45;;;;;;;35.75;17.42;;;2.30;99.90;;;;;;5115241;28;20031;-67
2022/01/14 12:32:13;;;;;;;;;;;2.30;99.90;;;;;;5126090;28;20036;-67
2022/01/14 12:34:45;;;;;;;29.70;16.25;;;2.30;99.90;;;;;;5128261;28;20272;-67
2022/01/14 12:37:21;;;;;;;28.65;14.35;;;2.40;99.90;;;;;;5119885;28;20027;-67
2022/01/14 12:39:49;;;;;;;33.17;17.52;;;2.40;99.90;;;;;;5114541;28;20035;-65
2022/01/14 12:42:14;;;;;;;34.95;16.90;;;2.30;99.90;;;;;;5119092;28;20046;-65
2022/01/14 12:44:40;;;;;;;32.30;18.38;;;2.10;99.90;;;;;;5118238;28;20024;-66
2022/01/14 12:47:09;;;;;;;32.03;17.30;;;2.10;99.90;;;;;;5120520;28;20034;-67
2022/01/14 12:49:37;;;;;;;31.27;17.05;;;1.90;99.90;;;;;;5133416;27;20482;-66
2022/01/14 12:52:04;;;;;;;37.25;17.15;;;2.10;99.90;;;;;;5119405;28;20118;-67
2022/01/14 12:54:31;;;;;;;30.52;15.95;;;2.20;99.90;;;;;;5123514;28;20122;-67
2022/01/14 12:56:57;;;;;;;32.60;16.58;;;2.20;99.90;;;;;;5118587;28;20032;-67
2022/01/14 12:59:24;;;;;;;30.15;17.02;;;2.30;99.90;;;;;;5113093;28;20032;-67
2022/01/14 13:01:52;;;;;;;38.78;16.70;;;2.30;99.90;;;;;;5115378;28;20386;-67
2022/01/14 13:04:19;;;;;;;32.53;16.65;;;2.30;99.90;;;;;;5114043;28;20024;-67
2022/01/14 13:06:54;;;;;;;35.58;17.88;;;2.30;99.90;;;;;;5121548;27;20531;-67
2022/01/14 13:09:30;;;;;;;33.97;17.10;;;1.90;99.90;;;;;;5122909;27;20114;-67
2022/01/14 13:12:00;;;;;;;33.63;18.27;;;2.00;99.90;;;;;;5124766;27;20063;-68
2022/01/14 13:14:29;;;;;;;40.53;19.05;;;2.10;99.90;;;;;;5125496;27;20031;-67